Meteo Giornale » Osservazioni meteo Stati Uniti (USA) » New York City Central Park

ore: 23:51 - Osservazioni Meteo New York City Central Park
Lat. 40° 47' N Lon. 73° 58' W Alt. 47 metri s.l.m.

sereno America/New_York

2 °C

Sereno

Temp. 24 Ore

-3 °C

3 °C

Nord

0 Km/h

Dew point -7 °C

Umidità 51 %

Visibilità  10 Km

Il sole sorge alle ore 07:12

Il sole tramonta alle ore 17:02

Data e Ora Cielo e Fenomeni T °C DP °C Um. % Pres. hPa Vis. km Vento km/h
Ieri h: 23:51 sereno Sereno 2 -7 51 1030 10 N 0
Ieri h: 22:51 sereno Sereno 2 -7 51 1031 10 N 0
Ieri h: 21:51 sereno Sereno 3 -8 44 1031 10 N 0
Ieri h: 20:51 sereno Sereno 2 -8 47 1031 10 N 0
Ieri h: 19:51 sereno Sereno 2 -8 47 1031 10 N 0
Ieri h: 18:51 sereno Sereno 3 -9 40 1031 10 N 0
Ieri h: 17:51 sereno Sereno 2 -9 43 1030 10 N 0
Ieri h: 16:51 sereno Sereno 3 -9 40 1030 10 N 0
Ieri h: 15:51 sereno Sereno 3 -9 40 1030 10 N 0
Ieri h: 14:51 sereno Sereno 0 0 52 1030 10 N 0
Ieri h: 13:51 sereno Sereno 2 -10 40 1030 10 N 0
Ieri h: 12:51 sereno Sereno 2 -9 43 1030 10 N 0
Ieri h: 11:51 sereno Sereno 1 -9 47 1031 10 N 0
Ieri h: 10:51 sereno Sereno -1 -9 54 1032 10 N 0
Ieri h: 09:51 sereno Sereno -2 -9 58 1032 10 N 0
Ieri h: 08:51 sereno Sereno -3 -10 58 1032 10 N 0
Ieri h: 07:51 sereno Sereno -3 -10 58 1032 10 N 0
Ieri h: 06:51 sereno Sereno -3 -11 53 1031 10 N 0
Ieri h: 05:51 sereno Sereno -3 -11 53 1031 10 N 0
Ieri h: 03:51 sereno Sereno -3 -11 53 1030 10 N 0
Ieri h: 02:51 sereno Sereno -3 -12 49 1030 10 N 0
Ieri h: 01:51 sereno Sereno -3 -12 49 1030 10 N 0
Ieri h: 00:51 sereno Sereno -3 -13 45 1031 10 N 0
Ieri h: 23:51 sereno Sereno -3 -13 45 1031 10 N 0